createdAt,value
2023-05-08T00:00:04.826Z,3.50
2023-05-08T00:02:32.322Z,3.70
2023-05-08T00:04:59.657Z,3.35
2023-05-08T00:07:26.844Z,4.30
2023-05-08T00:09:54.049Z,3.50
2023-05-08T00:12:21.300Z,3.78
2023-05-08T00:14:48.469Z,3.80
2023-05-08T00:17:15.769Z,3.90
2023-05-08T00:19:42.914Z,3.60
2023-05-08T00:22:10.065Z,3.75
2023-05-08T00:24:37.305Z,3.60
2023-05-08T00:27:04.614Z,4.18
2023-05-08T00:29:31.800Z,3.72
2023-05-08T00:31:58.975Z,3.72
2023-05-08T00:34:26.214Z,3.25
2023-05-08T00:36:53.432Z,4.85
2023-05-08T00:39:20.773Z,3.47
2023-05-08T00:41:47.962Z,3.67
2023-05-08T00:44:16.593Z,3.47
2023-05-08T00:46:44.051Z,3.70
2023-05-08T00:49:14.296Z,4.18
2023-05-08T00:51:44.551Z,3.03
2023-05-08T00:54:12.133Z,3.33
2023-05-08T00:56:39.723Z,3.28
2023-05-08T00:59:09.915Z,3.53
2023-05-08T01:01:39.900Z,3.65
2023-05-08T01:04:07.584Z,3.50
2023-05-08T01:06:36.777Z,3.67
2023-05-08T01:09:04.499Z,4.53
2023-05-08T01:11:50.589Z,3.92
2023-05-08T01:16:44.807Z,3.25
2023-05-08T01:19:18.624Z,3.42
2023-05-08T01:21:50.436Z,3.90
2023-05-08T01:24:32.349Z,3.63
2023-05-08T01:27:02.648Z,3.70
2023-05-08T01:29:48.193Z,4.00
2023-05-08T01:32:18.297Z,3.95
2023-05-08T01:34:48.449Z,3.33
2023-05-08T01:37:17.840Z,3.58
2023-05-08T01:39:52.092Z,4.95
2023-05-08T01:42:23.788Z,3.70
2023-05-08T01:45:02.844Z,3.58
2023-05-08T01:47:31.813Z,4.35
2023-05-08T01:50:21.749Z,3.60
2023-05-08T01:53:06.220Z,3.40
2023-05-08T01:55:36.303Z,3.17
2023-05-08T01:58:08.151Z,3.50
2023-05-08T02:00:35.956Z,3.40
2023-05-08T02:03:03.378Z,3.45
2023-05-08T02:05:30.869Z,3.10
2023-05-08T02:07:58.914Z,4.07
2023-05-08T02:10:26.602Z,3.38
2023-05-08T02:12:54.325Z,3.80
2023-05-08T02:15:21.959Z,3.53
2023-05-08T02:17:49.848Z,3.65
2023-05-08T02:20:17.127Z,3.53
2023-05-08T02:22:45.522Z,3.10
2023-05-08T02:25:14.764Z,3.28
2023-05-08T02:27:45.403Z,3.90
2023-05-08T02:30:16.106Z,3.45
2023-05-08T02:32:44.570Z,3.10
2023-05-08T02:35:16.862Z,4.07
2023-05-08T02:37:44.937Z,9.93
2023-05-08T02:40:13.115Z,3.50
2023-05-08T02:42:40.753Z,3.30
2023-05-08T02:45:08.493Z,3.45
2023-05-08T02:47:41.636Z,3.05
2023-05-08T02:50:32.292Z,3.50
2023-05-08T02:53:03.676Z,3.47
2023-05-08T02:55:41.305Z,3.00
2023-05-08T02:58:25.951Z,3.38
2023-05-08T03:01:02.094Z,3.30
2023-05-08T03:03:41.473Z,3.05
2023-05-08T03:06:10.888Z,4.05
2023-05-08T03:08:38.473Z,3.58
2023-05-08T03:11:09.326Z,3.38
2023-05-08T03:13:37.818Z,3.40
2023-05-08T03:16:06.581Z,3.38
2023-05-08T03:18:36.790Z,3.22
2023-05-08T03:21:05.172Z,3.40
2023-05-08T03:23:33.964Z,3.45
2023-05-08T03:26:01.954Z,3.60
2023-05-08T03:28:29.941Z,3.17
2023-05-08T03:30:57.794Z,3.15
2023-05-08T03:33:25.105Z,3.05
2023-05-08T03:35:53.225Z,3.10
2023-05-08T03:38:20.602Z,4.00
2023-05-08T03:40:49.264Z,3.30
2023-05-08T03:43:17.642Z,3.58
2023-05-08T03:45:44.949Z,3.53
2023-05-08T03:48:12.344Z,2.95
2023-05-08T03:50:39.559Z,3.53
2023-05-08T03:53:06.764Z,3.50
2023-05-08T03:55:33.975Z,3.30
2023-05-08T03:58:01.141Z,3.60
2023-05-08T04:00:28.293Z,3.55
2023-05-08T04:03:06.335Z,3.53
2023-05-08T04:05:37.869Z,4.03
2023-05-08T04:08:16.945Z,3.38
2023-05-08T04:10:49.152Z,3.40
2023-05-08T04:13:19.638Z,3.92
2023-05-08T04:15:52.435Z,2.90
2023-05-08T04:18:21.698Z,3.00
2023-05-08T04:20:49.359Z,4.13
2023-05-08T04:23:19.308Z,3.50
2023-05-08T04:25:47.590Z,3.45
2023-05-08T04:28:15.926Z,3.50
2023-05-08T04:30:43.317Z,3.50
2023-05-08T04:33:10.853Z,3.20
2023-05-08T04:35:38.191Z,3.47
2023-05-08T04:38:05.425Z,3.42
2023-05-08T04:40:32.680Z,3.83
2023-05-08T04:42:59.879Z,3.13
2023-05-08T04:45:27.055Z,2.95
2023-05-08T04:47:54.287Z,3.03
2023-05-08T04:50:21.512Z,3.35
2023-05-08T04:52:48.738Z,3.70
2023-05-08T04:55:15.936Z,3.88
2023-05-08T04:57:43.167Z,3.80
2023-05-08T05:00:10.676Z,3.40
2023-05-08T05:02:37.855Z,4.15
2023-05-08T05:05:05.795Z,3.75
2023-05-08T05:07:32.947Z,3.80
2023-05-08T05:10:00.630Z,4.53
2023-05-08T05:12:27.848Z,5.30
2023-05-08T05:14:54.981Z,3.53
2023-05-08T05:17:22.652Z,3.95
2023-05-08T05:19:51.503Z,4.05
2023-05-08T05:22:20.031Z,5.57
2023-05-08T05:24:47.162Z,5.97
2023-05-08T05:27:14.413Z,6.35
2023-05-08T05:29:41.593Z,8.27
2023-05-08T05:32:10.189Z,6.57
2023-05-08T05:34:37.389Z,7.60
2023-05-08T05:37:04.944Z,7.63
2023-05-08T05:39:32.091Z,6.68
2023-05-08T05:41:59.261Z,6.90
2023-05-08T05:44:26.406Z,9.70
2023-05-08T05:46:53.597Z,5.72
2023-05-08T05:49:20.840Z,6.75
2023-05-08T05:51:48.057Z,6.55
2023-05-08T05:54:15.225Z,7.45
2023-05-08T05:56:42.616Z,7.20
2023-05-08T05:59:09.779Z,5.40
2023-05-08T06:01:37.041Z,5.47
2023-05-08T06:04:04.510Z,5.88
2023-05-08T06:06:31.996Z,7.18
2023-05-08T06:08:59.673Z,7.03
2023-05-08T06:11:27.190Z,7.38
2023-05-08T06:13:54.364Z,7.50
2023-05-08T06:16:23.179Z,13.85
2023-05-08T06:18:50.512Z,7.38
2023-05-08T06:21:17.960Z,8.27
2023-05-08T06:23:45.153Z,8.80
2023-05-08T06:26:12.311Z,8.27
2023-05-08T06:28:39.501Z,9.00
2023-05-08T06:31:06.721Z,9.15
2023-05-08T06:33:33.975Z,12.95
2023-05-08T06:36:01.225Z,10.00
2023-05-08T06:38:28.400Z,11.32
2023-05-08T06:40:55.728Z,11.40
2023-05-08T06:43:23.067Z,12.48
2023-05-08T06:45:50.694Z,11.13
2023-05-08T06:48:17.928Z,11.23
2023-05-08T06:50:45.265Z,9.65
2023-05-08T06:53:12.434Z,11.30
2023-05-08T06:55:39.608Z,11.32
2023-05-08T06:58:06.828Z,11.45
2023-05-08T07:00:34.014Z,11.52
2023-05-08T07:03:01.261Z,13.02
2023-05-08T07:05:28.576Z,15.57
2023-05-08T07:07:55.788Z,15.30
2023-05-08T07:10:23.311Z,15.50
2023-05-08T07:12:50.828Z,16.20
2023-05-08T07:15:26.194Z,15.63
2023-05-08T07:17:54.472Z,15.85
2023-05-08T07:20:21.980Z,14.00
2023-05-08T07:22:49.242Z,20.65
2023-05-08T07:25:16.939Z,11.95
2023-05-08T07:27:44.214Z,12.13
2023-05-08T07:30:11.571Z,10.77
2023-05-08T07:32:39.373Z,17.75
2023-05-08T07:35:10.846Z,12.70
2023-05-08T07:37:38.619Z,9.57
2023-05-08T07:40:06.255Z,11.40
2023-05-08T07:42:38.776Z,10.07
2023-05-08T07:45:06.133Z,12.55
2023-05-08T07:47:33.411Z,10.23
2023-05-08T07:50:00.697Z,10.50
2023-05-08T07:52:27.868Z,11.02
2023-05-08T07:54:55.056Z,10.15
2023-05-08T07:57:22.216Z,14.23
2023-05-08T07:59:49.405Z,10.40
2023-05-08T08:02:16.896Z,18.90
2023-05-08T08:04:44.140Z,16.80
2023-05-08T08:07:11.330Z,15.02
2023-05-08T08:09:38.588Z,14.23
2023-05-08T08:12:05.830Z,15.32
2023-05-08T08:14:33.059Z,13.45
2023-05-08T08:17:00.244Z,16.48
2023-05-08T08:19:27.424Z,13.55
2023-05-08T08:21:54.686Z,15.30
2023-05-08T08:24:21.891Z,13.65
2023-05-08T08:26:49.243Z,13.30
2023-05-08T08:29:16.501Z,13.80
2023-05-08T08:31:43.772Z,13.98
2023-05-08T08:34:10.965Z,13.88
2023-05-08T08:36:38.203Z,14.30
2023-05-08T08:39:05.391Z,16.00
2023-05-08T08:41:33.399Z,19.40
2023-05-08T08:44:00.628Z,16.30
2023-05-08T08:46:28.794Z,16.48
2023-05-08T08:48:56.996Z,16.95
2023-05-08T08:51:33.505Z,14.35
2023-05-08T08:54:05.134Z,19.13
2023-05-08T08:56:33.438Z,15.02
2023-05-08T08:59:01.419Z,18.90
2023-05-08T09:01:29.392Z,14.23
2023-05-08T09:03:59.901Z,12.98
2023-05-08T09:06:30.093Z,16.30
2023-05-08T09:08:58.066Z,14.93
2023-05-08T09:11:25.928Z,19.20
2023-05-08T09:13:53.130Z,16.13
2023-05-08T09:16:20.342Z,16.42
2023-05-08T09:18:47.594Z,15.80
2023-05-08T09:21:15.027Z,14.82
2023-05-08T09:23:57.258Z,14.38
2023-05-08T09:26:34.398Z,14.55
2023-05-08T09:29:13.999Z,11.98
2023-05-08T09:31:42.523Z,17.50
2023-05-08T09:34:10.439Z,18.77
2023-05-08T09:36:39.972Z,13.43
2023-05-08T09:39:12.727Z,15.25
2023-05-08T09:41:41.111Z,14.68
2023-05-08T09:44:08.480Z,12.90
2023-05-08T09:46:36.097Z,11.23
2023-05-08T09:49:04.482Z,13.85
2023-05-08T09:51:32.573Z,10.23
2023-05-08T09:54:00.431Z,9.20
2023-05-08T09:56:30.682Z,9.68
2023-05-08T09:58:57.865Z,11.02
2023-05-08T10:01:44.173Z,8.85
2023-05-08T10:04:11.449Z,8.27
2023-05-08T10:06:38.821Z,7.93
2023-05-08T10:09:15.540Z,7.65
2023-05-08T10:11:43.959Z,8.18
2023-05-08T10:14:11.150Z,8.50
2023-05-08T10:16:45.576Z,8.68
2023-05-08T10:19:14.020Z,6.82
2023-05-08T10:21:42.638Z,7.97
2023-05-08T10:24:14.542Z,7.43
2023-05-08T10:26:53.706Z,6.60
2023-05-08T10:29:34.812Z,6.75
2023-05-08T10:32:03.620Z,7.88
2023-05-08T10:34:32.688Z,6.60
2023-05-08T10:37:00.004Z,6.45
2023-05-08T10:39:27.878Z,5.88
2023-05-08T10:41:55.236Z,5.80
2023-05-08T10:44:22.483Z,5.40
2023-05-08T10:46:55.671Z,5.25
2023-05-08T10:49:40.964Z,5.75
2023-05-08T10:52:08.546Z,5.30
2023-05-08T10:55:04.491Z,5.00
2023-05-08T10:57:32.175Z,5.10
2023-05-08T10:59:59.366Z,5.00
2023-05-08T11:02:30.453Z,5.00
2023-05-08T11:05:16.835Z,4.70
2023-05-08T11:07:56.775Z,5.03
2023-05-08T11:10:30.770Z,4.57
2023-05-08T11:12:58.699Z,4.50
2023-05-08T11:15:39.032Z,4.85
2023-05-08T11:18:12.389Z,4.60
2023-05-08T11:20:43.494Z,4.82
2023-05-08T11:23:23.264Z,4.22
2023-05-08T11:26:00.257Z,5.00
2023-05-08T11:28:27.638Z,5.28
2023-05-08T11:30:58.511Z,4.90
2023-05-08T11:33:30.528Z,4.60
2023-05-08T11:36:01.920Z,4.90
2023-05-08T11:38:32.165Z,4.53
2023-05-08T11:41:01.243Z,5.60
2023-05-08T11:43:37.370Z,4.63
2023-05-08T11:46:05.832Z,5.13
2023-05-08T11:48:33.607Z,4.70
2023-05-08T11:51:01.357Z,5.43
2023-05-08T11:53:30.416Z,7.05
2023-05-08T11:55:57.889Z,8.70
2023-05-08T11:58:25.156Z,7.90
2023-05-08T12:00:52.613Z,6.28
2023-05-08T12:03:21.425Z,6.50
2023-05-08T12:05:49.841Z,5.97
2023-05-08T12:08:17.867Z,6.93
2023-05-08T12:10:47.763Z,5.82
2023-05-08T12:13:21.162Z,6.80
2023-05-08T12:15:48.951Z,8.30
2023-05-08T12:18:17.057Z,11.95
2023-05-08T12:20:44.840Z,14.52
2023-05-08T12:23:12.546Z,13.75
2023-05-08T12:25:40.690Z,14.73
2023-05-08T12:28:08.141Z,15.50
2023-05-08T12:30:35.425Z,21.70
2023-05-08T12:33:04.491Z,20.73
2023-05-08T12:35:32.308Z,18.80
2023-05-08T12:38:03.463Z,23.77
2023-05-08T12:40:34.088Z,19.63
2023-05-08T12:43:01.983Z,23.00
2023-05-08T12:45:34.360Z,19.33
2023-05-08T12:48:02.703Z,20.27
2023-05-08T12:50:30.673Z,20.92
2023-05-08T12:53:27.499Z,20.00
2023-05-08T12:55:55.878Z,19.23
2023-05-08T12:58:26.945Z,18.63
2023-05-08T13:00:54.925Z,18.73
2023-05-08T13:03:29.192Z,22.25
2023-05-08T13:05:58.047Z,17.00
2023-05-08T13:08:33.027Z,18.67
2023-05-08T13:11:00.699Z,20.63
2023-05-08T13:13:29.002Z,22.35
2023-05-08T13:15:56.709Z,19.10
2023-05-08T13:18:27.815Z,19.58
2023-05-08T13:20:56.236Z,20.27
2023-05-08T13:23:23.836Z,22.17
2023-05-08T13:25:51.262Z,18.77
2023-05-08T13:28:18.506Z,25.05
2023-05-08T13:30:46.030Z,20.38
2023-05-08T13:33:13.278Z,20.50
2023-05-08T13:35:40.808Z,20.48
2023-05-08T13:38:07.980Z,20.70
2023-05-08T13:40:35.242Z,25.02
2023-05-08T13:43:02.384Z,19.20
2023-05-08T13:45:29.768Z,25.55
2023-05-08T13:47:57.217Z,23.15
2023-05-08T13:50:24.560Z,25.13
2023-05-08T13:52:54.483Z,19.38
2023-05-08T13:55:23.320Z,21.27
2023-05-08T13:57:51.139Z,20.05
2023-05-08T14:00:18.680Z,21.77
2023-05-08T14:02:46.158Z,18.58
2023-05-08T14:05:13.702Z,21.88
2023-05-08T14:07:41.186Z,21.30
2023-05-08T14:10:08.570Z,19.63
2023-05-08T14:12:37.663Z,21.17
2023-05-08T14:15:05.947Z,21.60
2023-05-08T14:17:33.418Z,21.40
2023-05-08T14:20:00.609Z,18.90
2023-05-08T14:22:27.809Z,20.40
2023-05-08T14:24:54.997Z,20.23
2023-05-08T14:27:22.250Z,20.15
2023-05-08T14:29:50.830Z,21.77
2023-05-08T14:32:18.098Z,18.13
2023-05-08T14:34:45.391Z,19.45
2023-05-08T14:37:13.144Z,18.58
2023-05-08T14:39:40.504Z,23.95
2023-05-08T14:44:37.872Z,21.63
2023-05-08T14:47:05.106Z,25.92
2023-05-08T14:49:38.242Z,19.48
2023-05-08T14:52:06.717Z,19.70
2023-05-08T14:54:34.091Z,21.27
2023-05-08T14:57:01.601Z,20.80
2023-05-08T14:59:28.790Z,16.58
2023-05-08T15:01:55.992Z,19.88
2023-05-08T15:04:23.427Z,19.73
2023-05-08T15:06:50.869Z,21.38
2023-05-08T15:09:18.046Z,24.10
2023-05-08T15:11:45.331Z,23.00
2023-05-08T15:14:12.547Z,19.10
2023-05-08T15:16:39.728Z,17.73
2023-05-08T15:19:09.283Z,21.65
2023-05-08T15:21:36.546Z,18.15
2023-05-08T15:24:03.750Z,16.17
2023-05-08T15:26:31.020Z,17.95
2023-05-08T15:28:58.227Z,18.45
2023-05-08T15:31:25.887Z,18.48
2023-05-08T15:33:53.086Z,22.05
2023-05-08T15:36:23.126Z,17.02
2023-05-08T15:38:50.722Z,16.58
2023-05-08T15:41:17.909Z,17.42
2023-05-08T15:43:45.581Z,16.35
2023-05-08T15:46:12.850Z,16.90
2023-05-08T15:48:40.122Z,16.83
2023-05-08T15:51:07.333Z,18.58
2023-05-08T15:53:35.774Z,15.52
2023-05-08T15:56:03.022Z,16.63
2023-05-08T15:58:30.228Z,14.77
2023-05-08T16:00:57.785Z,18.90
2023-05-08T16:03:25.385Z,14.68
2023-05-08T16:05:52.577Z,21.33
2023-05-08T16:08:19.806Z,17.58
2023-05-08T16:10:47.246Z,21.52
2023-05-08T16:13:14.706Z,17.35
2023-05-08T16:15:42.002Z,18.23
2023-05-08T16:18:09.190Z,31.20
2023-05-08T16:20:36.633Z,19.10
2023-05-08T16:23:03.910Z,19.98
2023-05-08T16:25:31.318Z,15.80
2023-05-08T16:27:58.750Z,21.42
2023-05-08T16:30:25.924Z,22.50
2023-05-08T16:32:53.472Z,19.10
2023-05-08T16:35:20.773Z,14.40
2023-05-08T16:37:48.481Z,16.63
2023-05-08T16:40:15.736Z,21.13
2023-05-08T16:42:42.907Z,13.70
2023-05-08T16:45:10.389Z,18.02
2023-05-08T16:47:37.580Z,13.40
2023-05-08T16:50:05.409Z,18.55
2023-05-08T16:52:33.018Z,15.50
2023-05-08T16:55:10.875Z,16.30
2023-05-08T16:57:38.283Z,16.88
2023-05-08T17:00:05.885Z,17.17
2023-05-08T17:02:33.172Z,16.30
2023-05-08T17:05:00.507Z,11.93
2023-05-08T17:07:27.716Z,17.67
2023-05-08T17:09:58.210Z,16.40
2023-05-08T17:12:25.638Z,13.57
2023-05-08T17:14:52.956Z,17.15
2023-05-08T17:17:20.121Z,14.02
2023-05-08T17:19:47.305Z,13.07
2023-05-08T17:22:14.549Z,15.77
2023-05-08T17:24:41.746Z,12.10
2023-05-08T17:27:09.058Z,12.80
2023-05-08T17:29:36.490Z,17.55
2023-05-08T17:32:03.671Z,14.05
2023-05-08T17:34:30.983Z,11.63
2023-05-08T17:36:58.428Z,12.23
2023-05-08T17:39:25.629Z,12.63
2023-05-08T17:41:54.053Z,13.82
2023-05-08T17:44:21.299Z,12.65
2023-05-08T17:46:48.587Z,16.77
2023-05-08T17:49:19.294Z,14.95
2023-05-08T17:51:46.852Z,12.00
2023-05-08T17:54:14.032Z,11.48
2023-05-08T17:56:41.213Z,13.95
2023-05-08T17:59:08.404Z,15.63
2023-05-08T18:01:35.691Z,13.75
2023-05-08T18:04:02.956Z,13.68
2023-05-08T18:06:30.233Z,15.98
2023-05-08T18:08:57.430Z,13.20
2023-05-08T18:11:25.510Z,14.43
2023-05-08T18:13:53.472Z,12.65
2023-05-08T18:16:22.962Z,11.27
2023-05-08T18:18:50.298Z,14.50
2023-05-08T18:21:17.499Z,9.75
2023-05-08T18:23:44.767Z,10.80
2023-05-08T18:26:15.684Z,13.35
2023-05-08T18:28:43.010Z,13.30
2023-05-08T18:31:10.977Z,11.63
2023-05-08T18:33:38.288Z,10.43
2023-05-08T18:36:07.010Z,9.95
2023-05-08T18:38:34.568Z,15.82
2023-05-08T18:41:02.567Z,11.35
2023-05-08T18:43:29.765Z,9.65
2023-05-08T18:45:57.685Z,11.63
2023-05-08T18:48:26.202Z,9.25
2023-05-08T18:50:55.789Z,11.82
2023-05-08T18:53:22.963Z,11.02
2023-05-08T18:55:50.958Z,11.57
2023-05-08T18:58:18.167Z,9.70
2023-05-08T19:00:45.380Z,11.60
2023-05-08T19:03:12.716Z,10.88
2023-05-08T19:05:41.374Z,10.32
2023-05-08T19:08:08.656Z,13.20
2023-05-08T19:10:35.836Z,9.90
2023-05-08T19:13:03.207Z,10.60
2023-05-08T19:15:30.659Z,11.98
2023-05-08T19:17:57.853Z,9.55
2023-05-08T19:20:25.845Z,10.65
2023-05-08T19:22:53.211Z,10.07
2023-05-08T19:25:20.452Z,10.38
2023-05-08T19:27:47.900Z,15.93
2023-05-08T19:30:15.389Z,17.48
2023-05-08T19:32:42.744Z,9.93
2023-05-08T19:35:10.030Z,14.10
2023-05-08T19:37:37.980Z,15.25
2023-05-08T19:40:06.052Z,10.45
2023-05-08T19:42:33.286Z,12.02
2023-05-08T19:45:01.310Z,12.90
2023-05-08T19:47:28.569Z,15.95
2023-05-08T19:49:55.794Z,12.80
2023-05-08T19:52:22.985Z,14.02
2023-05-08T19:54:50.159Z,15.32
2023-05-08T19:57:17.419Z,10.93
2023-05-08T19:59:44.751Z,14.13
2023-05-08T20:02:11.980Z,17.38
2023-05-08T20:05:03.809Z,12.82
2023-05-08T20:07:26.399Z,13.30
2023-05-08T20:09:53.733Z,14.52
2023-05-08T20:12:20.926Z,13.38
2023-05-08T20:14:48.160Z,15.20
2023-05-08T20:17:15.356Z,15.00
2023-05-08T20:19:42.603Z,10.85
2023-05-08T20:22:10.986Z,12.75
2023-05-08T20:24:38.191Z,10.48
2023-05-08T20:27:05.508Z,13.82
2023-05-08T20:29:32.686Z,13.93
2023-05-08T20:32:00.350Z,11.77
2023-05-08T20:34:27.617Z,11.10
2023-05-08T20:36:56.266Z,10.75
2023-05-08T20:39:23.417Z,12.68
2023-05-08T20:41:50.565Z,11.45
2023-05-08T20:44:19.258Z,12.05
2023-05-08T20:46:46.443Z,11.32
2023-05-08T20:49:13.829Z,11.55
2023-05-08T20:51:41.063Z,12.95
2023-05-08T20:54:08.219Z,12.45
2023-05-08T20:56:38.409Z,12.65
2023-05-08T20:59:05.653Z,14.02
2023-05-08T21:01:33.063Z,11.43
2023-05-08T21:04:00.240Z,16.10
2023-05-08T21:06:27.560Z,12.48
2023-05-08T21:08:54.926Z,9.98
2023-05-08T21:11:22.214Z,12.82
2023-05-08T21:13:49.376Z,12.25
2023-05-08T21:16:16.604Z,16.40
2023-05-08T21:18:43.840Z,13.70
2023-05-08T21:21:20.050Z,14.40
2023-05-08T21:23:47.244Z,12.68
2023-05-08T21:26:14.419Z,10.85
2023-05-08T21:28:41.913Z,19.38
2023-05-08T21:31:09.211Z,13.52
2023-05-08T21:33:36.497Z,12.65
2023-05-08T21:36:03.799Z,14.38
2023-05-08T21:38:31.003Z,11.27
2023-05-08T21:40:58.168Z,13.27
2023-05-08T21:43:25.405Z,12.88
2023-05-08T21:45:52.588Z,12.55
2023-05-08T21:48:19.771Z,12.65
2023-05-08T21:50:46.951Z,18.13
2023-05-08T21:53:14.114Z,14.38
2023-05-08T21:55:41.288Z,16.13
2023-05-08T21:58:08.462Z,9.70
2023-05-08T22:00:35.689Z,9.13
2023-05-08T22:03:02.942Z,13.88
2023-05-08T22:05:30.179Z,9.80
2023-05-08T22:07:57.357Z,13.93
2023-05-08T22:10:25.599Z,10.25
2023-05-08T22:12:52.891Z,11.82
2023-05-08T22:15:29.705Z,12.60
2023-05-08T22:17:57.824Z,10.88
2023-05-08T22:20:25.136Z,10.20
2023-05-08T22:22:52.281Z,10.50
2023-05-08T22:25:21.637Z,8.15
2023-05-08T22:27:48.969Z,11.48
2023-05-08T22:30:16.192Z,9.30
2023-05-08T22:32:43.410Z,10.77
2023-05-08T22:35:10.743Z,10.73
2023-05-08T22:37:37.942Z,9.55
2023-05-08T22:40:05.582Z,10.45
2023-05-08T22:42:32.733Z,8.20
2023-05-08T22:44:59.878Z,9.43
2023-05-08T22:47:27.060Z,10.05
2023-05-08T22:49:54.702Z,14.60
2023-05-08T22:52:21.863Z,7.72
2023-05-08T22:54:49.006Z,7.53
2023-05-08T22:57:16.233Z,10.70
2023-05-08T22:59:43.417Z,7.85
2023-05-08T23:02:10.568Z,12.00
2023-05-08T23:04:37.841Z,9.40
2023-05-08T23:07:05.017Z,8.75
2023-05-08T23:09:32.238Z,8.63
2023-05-08T23:11:59.429Z,8.65
2023-05-08T23:14:26.589Z,7.22
2023-05-08T23:16:53.780Z,7.80
2023-05-08T23:19:21.084Z,10.50
2023-05-08T23:21:48.308Z,8.68
2023-05-08T23:24:15.491Z,8.02
2023-05-08T23:26:42.812Z,8.73
2023-05-08T23:29:09.982Z,9.05
2023-05-08T23:31:37.211Z,11.63
2023-05-08T23:34:04.474Z,7.32
2023-05-08T23:36:32.119Z,8.15
2023-05-08T23:38:59.308Z,8.43
2023-05-08T23:41:26.587Z,6.97
2023-05-08T23:43:53.685Z,7.68
2023-05-08T23:46:20.880Z,8.02
2023-05-08T23:48:48.088Z,7.82
2023-05-08T23:51:15.244Z,7.55
2023-05-08T23:53:42.434Z,7.10
2023-05-08T23:56:09.822Z,9.13
2023-05-08T23:58:37.058Z,6.60
